sensor_id;sensor_type;location;lat;lon;timestamp;pressure;altitude;pressure_sealevel;temperature;humidity
2339;BME280;1180;51.438;6.978;2022-09-09T00:03:26;99532.38;;;19.06;93.21
2339;BME280;1180;51.438;6.978;2022-09-09T00:11:13;99534.34;;;19.04;93.31
2339;BME280;1180;51.438;6.978;2022-09-09T00:13:48;99531.56;;;19.05;92.91
2339;BME280;1180;51.438;6.978;2022-09-09T00:21:38;99533.22;;;19.07;93.27
2339;BME280;1180;51.438;6.978;2022-09-09T00:24:24;99541.81;;;19.07;93.61
2339;BME280;1180;51.438;6.978;2022-09-09T00:26:54;99538.72;;;19.12;92.86
2339;BME280;1180;51.438;6.978;2022-09-09T00:32:16;99546.03;;;19.00;93.34
2339;BME280;1180;51.438;6.978;2022-09-09T00:34:55;99542.13;;;18.96;93.17
2339;BME280;1180;51.438;6.978;2022-09-09T00:37:22;99548.44;;;18.93;92.75
2339;BME280;1180;51.438;6.978;2022-09-09T00:39:51;99535.44;;;18.93;92.83
2339;BME280;1180;51.438;6.978;2022-09-09T00:42:50;99536.75;;;18.97;92.55
2339;BME280;1180;51.438;6.978;2022-09-09T00:48:10;99537.06;;;18.86;93.73
2339;BME280;1180;51.438;6.978;2022-09-09T00:50:59;99536.41;;;18.92;92.97
2339;BME280;1180;51.438;6.978;2022-09-09T00:53:54;99531.06;;;18.94;93.26
2339;BME280;1180;51.438;6.978;2022-09-09T00:56:28;99547.81;;;18.83;94.30
2339;BME280;1180;51.438;6.978;2022-09-09T00:59:23;99546.66;;;18.77;94.64
2339;BME280;1180;51.438;6.978;2022-09-09T01:01:51;99540.16;;;18.81;94.95
2339;BME280;1180;51.438;6.978;2022-09-09T01:04:29;99541.94;;;18.89;94.98
2339;BME280;1180;51.438;6.978;2022-09-09T01:07:03;99544.88;;;18.86;94.90
2339;BME280;1180;51.438;6.978;2022-09-09T01:09:57;99540.84;;;19.00;94.22
2339;BME280;1180;51.438;6.978;2022-09-09T01:12:41;99534.47;;;18.86;94.19
2339;BME280;1180;51.438;6.978;2022-09-09T01:15:28;99543.06;;;18.86;94.63
2339;BME280;1180;51.438;6.978;2022-09-09T01:18:05;99529.91;;;18.96;93.38
2339;BME280;1180;51.438;6.978;2022-09-09T01:20:59;99536.41;;;18.92;93.31
2339;BME280;1180;51.438;6.978;2022-09-09T01:23:59;99529.09;;;18.87;93.36
2339;BME280;1180;51.438;6.978;2022-09-09T01:26:38;99527.81;;;18.91;93.30
2339;BME280;1180;51.438;6.978;2022-09-09T01:29:09;99526.03;;;18.92;93.90
2339;BME280;1180;51.438;6.978;2022-09-09T01:32:37;99528.81;;;18.90;93.52
2339;BME280;1180;51.438;6.978;2022-09-09T01:34:35;99514.19;;;18.89;93.85
2339;BME280;1180;51.438;6.978;2022-09-09T01:37:08;99516.78;;;18.89;94.30
2339;BME280;1180;51.438;6.978;2022-09-09T01:39:36;99526.69;;;18.86;95.05
2339;BME280;1180;51.438;6.978;2022-09-09T01:42:05;99524.56;;;18.81;95.42
2339;BME280;1180;51.438;6.978;2022-09-09T01:44:32;99517.72;;;18.88;95.33
2339;BME280;1180;51.438;6.978;2022-09-09T01:46:58;99520.66;;;18.94;94.56
2339;BME280;1180;51.438;6.978;2022-09-09T01:49:23;99520.34;;;18.97;94.58
2339;BME280;1180;51.438;6.978;2022-09-09T01:51:52;99522.66;;;19.00;94.44
2339;BME280;1180;51.438;6.978;2022-09-09T01:54:19;99513.84;;;18.93;94.51
2339;BME280;1180;51.438;6.978;2022-09-09T02:00:07;99511.25;;;18.93;94.31
2339;BME280;1180;51.438;6.978;2022-09-09T02:02:41;99513.19;;;18.90;93.99
2339;BME280;1180;51.438;6.978;2022-09-09T02:08:03;99520.50;;;18.95;93.79
2339;BME280;1180;51.438;6.978;2022-09-09T02:10:34;99523.09;;;18.95;93.46
2339;BME280;1180;51.438;6.978;2022-09-09T02:13:07;99521.31;;;18.96;93.28
2339;BME280;1180;51.438;6.978;2022-09-09T02:15:49;99521.47;;;18.94;93.27
2339;BME280;1180;51.438;6.978;2022-09-09T02:18:35;99523.41;;;18.92;93.23
2339;BME280;1180;51.438;6.978;2022-09-09T02:21:02;99523.59;;;18.90;93.74
2339;BME280;1180;51.438;6.978;2022-09-09T02:23:28;99520.03;;;18.91;93.84
2339;BME280;1180;51.438;6.978;2022-09-09T02:25:56;99524.72;;;18.96;93.09
2339;BME280;1180;51.438;6.978;2022-09-09T02:28:25;99518.56;;;18.89;93.31
2339;BME280;1180;51.438;6.978;2022-09-09T02:30:52;99519.34;;;18.81;94.78
2339;BME280;1180;51.438;6.978;2022-09-09T02:33:25;99520.31;;;18.88;94.52
2339;BME280;1180;51.438;6.978;2022-09-09T02:35:52;99518.22;;;18.84;94.85
2339;BME280;1180;51.438;6.978;2022-09-09T02:38:24;99525.06;;;18.85;94.86
2339;BME280;1180;51.438;6.978;2022-09-09T02:40:51;99521.00;;;18.90;94.84
2339;BME280;1180;51.438;6.978;2022-09-09T02:43:17;99530.25;;;19.01;93.98
2339;BME280;1180;51.438;6.978;2022-09-09T02:45:51;99527.66;;;19.01;93.86
2339;BME280;1180;51.438;6.978;2022-09-09T02:48:28;99524.59;;;18.98;94.59
2339;BME280;1180;51.438;6.978;2022-09-09T02:51:24;99524.41;;;18.99;95.25
2339;BME280;1180;51.438;6.978;2022-09-09T02:54:33;99518.56;;;19.05;94.61
2339;BME280;1180;51.438;6.978;2022-09-09T02:57:11;99519.06;;;19.01;95.08
2339;BME280;1180;51.438;6.978;2022-09-09T02:59:38;99522.13;;;19.04;95.74
2339;BME280;1180;51.438;6.978;2022-09-09T03:02:04;99514.03;;;19.08;95.58
2339;BME280;1180;51.438;6.978;2022-09-09T03:04:30;99508.97;;;19.14;95.27
2339;BME280;1180;51.438;6.978;2022-09-09T03:06:57;99515.78;;;19.15;95.32
2339;BME280;1180;51.438;6.978;2022-09-09T03:09:22;99520.00;;;19.16;95.35
2339;BME280;1180;51.438;6.978;2022-09-09T03:11:47;99514.81;;;19.08;95.79
2339;BME280;1180;51.438;6.978;2022-09-09T03:14:14;99512.88;;;19.10;95.70
2339;BME280;1180;51.438;6.978;2022-09-09T03:16:40;99515.16;;;19.05;95.55
2339;BME280;1180;51.438;6.978;2022-09-09T03:19:07;99517.75;;;19.13;95.04
2339;BME280;1180;51.438;6.978;2022-09-09T03:21:33;99513.69;;;19.11;95.22
2339;BME280;1180;51.438;6.978;2022-09-09T03:23:58;99507.34;;;19.13;95.40
2339;BME280;1180;51.438;6.978;2022-09-09T03:26:23;99506.66;;;19.19;94.74
2339;BME280;1180;51.438;6.978;2022-09-09T03:28:49;99510.75;;;19.14;94.75
2339;BME280;1180;51.438;6.978;2022-09-09T03:31:17;99507.19;;;19.15;94.48
2339;BME280;1180;51.438;6.978;2022-09-09T03:33:44;99509.94;;;19.13;94.75
2339;BME280;1180;51.438;6.978;2022-09-09T03:36:10;99502.47;;;19.10;94.77
2339;BME280;1180;51.438;6.978;2022-09-09T03:38:35;99511.59;;;19.06;94.48
2339;BME280;1180;51.438;6.978;2022-09-09T03:41:01;99500.84;;;19.09;94.66
2339;BME280;1180;51.438;6.978;2022-09-09T03:43:28;99504.09;;;19.11;94.36
2339;BME280;1180;51.438;6.978;2022-09-09T03:45:54;99513.84;;;19.09;94.36
2339;BME280;1180;51.438;6.978;2022-09-09T03:48:22;99512.22;;;19.08;94.62
2339;BME280;1180;51.438;6.978;2022-09-09T03:50:50;99504.44;;;19.08;94.62
2339;BME280;1180;51.438;6.978;2022-09-09T03:53:16;99506.72;;;19.03;94.82
2339;BME280;1180;51.438;6.978;2022-09-09T03:55:50;99502.81;;;19.07;94.94
2339;BME280;1180;51.438;6.978;2022-09-09T03:58:20;99505.06;;;19.10;94.31
2339;BME280;1180;51.438;6.978;2022-09-09T04:01:21;99505.09;;;19.02;94.75
2339;BME280;1180;51.438;6.978;2022-09-09T04:03:46;99501.19;;;18.98;94.94
2339;BME280;1180;51.438;6.978;2022-09-09T04:06:12;99505.41;;;18.99;94.58
2339;BME280;1180;51.438;6.978;2022-09-09T04:08:39;99507.19;;;18.98;94.69
2339;BME280;1180;51.438;6.978;2022-09-09T04:11:05;99503.78;;;18.98;94.50
2339;BME280;1180;51.438;6.978;2022-09-09T04:13:35;99505.25;;;19.00;93.79
2339;BME280;1180;51.438;6.978;2022-09-09T04:16:03;99504.09;;;18.95;94.15
2339;BME280;1180;51.438;6.978;2022-09-09T04:18:28;99501.97;;;18.90;93.96
2339;BME280;1180;51.438;6.978;2022-09-09T04:20:54;99498.88;;;18.86;94.00
2339;BME280;1180;51.438;6.978;2022-09-09T04:23:23;99499.06;;;18.85;93.81
2339;BME280;1180;51.438;6.978;2022-09-09T04:25:53;99505.41;;;18.90;94.05
2339;BME280;1180;51.438;6.978;2022-09-09T04:28:23;99503.28;;;18.94;93.92
2339;BME280;1180;51.438;6.978;2022-09-09T04:30:48;99506.38;;;18.89;94.03
2339;BME280;1180;51.438;6.978;2022-09-09T04:33:14;99498.72;;;18.88;94.05
2339;BME280;1180;51.438;6.978;2022-09-09T04:35:45;99509.13;;;18.88;94.26
2339;BME280;1180;51.438;6.978;2022-09-09T04:38:10;99507.66;;;18.85;94.28
2339;BME280;1180;51.438;6.978;2022-09-09T04:40:36;99509.47;;;18.85;94.20
2339;BME280;1180;51.438;6.978;2022-09-09T04:43:02;99514.47;;;18.86;94.38
2339;BME280;1180;51.438;6.978;2022-09-09T04:45:29;99507.19;;;18.90;94.57
2339;BME280;1180;51.438;6.978;2022-09-09T04:47:55;99506.69;;;18.95;94.48
2339;BME280;1180;51.438;6.978;2022-09-09T04:50:20;99502.28;;;18.95;94.29
2339;BME280;1180;51.438;6.978;2022-09-09T04:52:46;99506.84;;;18.93;93.90
2339;BME280;1180;51.438;6.978;2022-09-09T04:55:11;99508.97;;;18.89;94.28
2339;BME280;1180;51.438;6.978;2022-09-09T04:57:38;99510.28;;;18.94;94.85
2339;BME280;1180;51.438;6.978;2022-09-09T05:00:04;99508.34;;;19.04;94.13
2339;BME280;1180;51.438;6.978;2022-09-09T05:02:30;99515.50;;;19.02;94.08
2339;BME280;1180;51.438;6.978;2022-09-09T05:04:55;99509.97;;;19.05;93.62
2339;BME280;1180;51.438;6.978;2022-09-09T05:07:21;99506.53;;;19.04;93.68
2339;BME280;1180;51.438;6.978;2022-09-09T05:09:46;99512.06;;;19.10;93.92
2339;BME280;1180;51.438;6.978;2022-09-09T05:12:14;99512.22;;;19.08;93.40
2339;BME280;1180;51.438;6.978;2022-09-09T05:14:42;99518.91;;;19.11;93.34
2339;BME280;1180;51.438;6.978;2022-09-09T05:17:07;99509.47;;;19.10;93.45
2339;BME280;1180;51.438;6.978;2022-09-09T05:19:32;99509.81;;;19.07;93.56
2339;BME280;1180;51.438;6.978;2022-09-09T05:21:58;99503.78;;;19.06;93.60
2339;BME280;1180;51.438;6.978;2022-09-09T05:24:23;99510.13;;;19.12;93.45
2339;BME280;1180;51.438;6.978;2022-09-09T05:26:49;99505.03;;;19.18;92.73
2339;BME280;1180;51.438;6.978;2022-09-09T05:29:14;99502.13;;;19.22;92.80
2339;BME280;1180;51.438;6.978;2022-09-09T05:31:39;99505.03;;;19.18;92.73
2339;BME280;1180;51.438;6.978;2022-09-09T05:34:06;99504.56;;;19.23;93.07
2339;BME280;1180;51.438;6.978;2022-09-09T05:36:31;99506.38;;;19.23;93.27
2339;BME280;1180;51.438;6.978;2022-09-09T05:38:57;99512.03;;;19.26;93.21
2339;BME280;1180;51.438;6.978;2022-09-09T05:41:23;99507.47;;;19.28;92.83
2339;BME280;1180;51.438;6.978;2022-09-09T05:43:48;99511.84;;;19.36;93.09
2339;BME280;1180;51.438;6.978;2022-09-09T05:46:14;99509.25;;;19.36;93.04
2339;BME280;1180;51.438;6.978;2022-09-09T05:48:45;99505.47;;;19.39;92.74
2339;BME280;1180;51.438;6.978;2022-09-09T05:51:18;99503.22;;;19.36;93.26
2339;BME280;1180;51.438;6.978;2022-09-09T05:53:45;99506.94;;;19.41;92.97
2339;BME280;1180;51.438;6.978;2022-09-09T05:56:13;99508.28;;;19.37;92.90
2339;BME280;1180;51.438;6.978;2022-09-09T05:58:43;99506.94;;;19.41;93.12
2339;BME280;1180;51.438;6.978;2022-09-09T06:01:14;99510.03;;;19.37;93.16
2339;BME280;1180;51.438;6.978;2022-09-09T06:03:41;99514.94;;;19.31;93.71
2339;BME280;1180;51.438;6.978;2022-09-09T06:06:09;99512.00;;;19.34;93.66
2339;BME280;1180;51.438;6.978;2022-09-09T06:08:37;99512.81;;;19.43;93.51
2339;BME280;1180;51.438;6.978;2022-09-09T06:11:05;99519.13;;;19.49;92.66
2339;BME280;1180;51.438;6.978;2022-09-09T06:13:31;99515.06;;;19.46;92.80
2339;BME280;1180;51.438;6.978;2022-09-09T06:15:57;99514.91;;;19.48;92.97
2339;BME280;1180;51.438;6.978;2022-09-09T06:18:24;99515.84;;;19.55;92.65
2339;BME280;1180;51.438;6.978;2022-09-09T06:20:57;99513.56;;;19.60;92.86
2339;BME280;1180;51.438;6.978;2022-09-09T06:23:23;99514.19;;;19.62;92.66
2339;BME280;1180;51.438;6.978;2022-09-09T06:25:49;99516.47;;;19.66;91.87
2339;BME280;1180;51.438;6.978;2022-09-09T06:28:16;99518.09;;;19.67;91.79
2339;BME280;1180;51.438;6.978;2022-09-09T06:30:42;99516.75;;;19.71;91.89
2339;BME280;1180;51.438;6.978;2022-09-09T06:33:07;99516.59;;;19.72;91.50
2339;BME280;1180;51.438;6.978;2022-09-09T06:35:33;99514.50;;;19.68;91.75
2339;BME280;1180;51.438;6.978;2022-09-09T06:37:58;99522.78;;;19.71;91.32
2339;BME280;1180;51.438;6.978;2022-09-09T06:40:24;99523.44;;;19.73;91.63
2339;BME280;1180;51.438;6.978;2022-09-09T06:42:50;99518.38;;;19.80;91.27
2339;BME280;1180;51.438;6.978;2022-09-09T06:45:15;99526.69;;;19.75;91.43
2339;BME280;1180;51.438;6.978;2022-09-09T06:47:41;99528.25;;;19.85;91.15
2339;BME280;1180;51.438;6.978;2022-09-09T06:50:07;99526.28;;;19.87;91.43
2339;BME280;1180;51.438;6.978;2022-09-09T06:52:33;99525.53;;;19.78;91.87
2339;BME280;1180;51.438;6.978;2022-09-09T06:54:58;99524.53;;;19.87;90.91
2339;BME280;1180;51.438;6.978;2022-09-09T06:57:24;99524.22;;;19.90;90.70
2339;BME280;1180;51.438;6.978;2022-09-09T06:59:51;99532.81;;;19.99;90.52
2339;BME280;1180;51.438;6.978;2022-09-09T07:02:17;99527.53;;;20.08;90.29
2339;BME280;1180;51.438;6.978;2022-09-09T07:04:42;99532.25;;;20.12;90.33
2339;BME280;1180;51.438;6.978;2022-09-09T07:07:08;99528.66;;;20.13;90.13
2339;BME280;1180;51.438;6.978;2022-09-09T07:09:35;99531.50;;;20.27;89.40
2339;BME280;1180;51.438;6.978;2022-09-09T07:12:00;99536.25;;;20.23;88.74
2339;BME280;1180;51.438;6.978;2022-09-09T07:14:26;99535.38;;;20.31;88.60
2339;BME280;1180;51.438;6.978;2022-09-09T07:16:52;99531.34;;;20.28;88.00
2339;BME280;1180;51.438;6.978;2022-09-09T07:19:17;99541.75;;;20.28;88.37
2339;BME280;1180;51.438;6.978;2022-09-09T07:21:43;99542.56;;;20.29;88.41
2339;BME280;1180;51.438;6.978;2022-09-09T07:24:08;99540.25;;;20.34;88.10
2339;BME280;1180;51.438;6.978;2022-09-09T07:26:36;99543.50;;;20.36;87.77
2339;BME280;1180;51.438;6.978;2022-09-09T07:29:02;99540.38;;;20.41;87.41
2339;BME280;1180;51.438;6.978;2022-09-09T07:31:33;99544.59;;;20.42;87.14
2339;BME280;1180;51.438;6.978;2022-09-09T07:34:00;99548.81;;;20.43;86.51
2339;BME280;1180;51.438;6.978;2022-09-09T07:36:28;99545.38;;;20.51;85.72
2339;BME280;1180;51.438;6.978;2022-09-09T07:38:58;99541.78;;;20.52;85.55
2339;BME280;1180;51.438;6.978;2022-09-09T07:41:40;99544.84;;;20.55;84.79
2339;BME280;1180;51.438;6.978;2022-09-09T07:44:07;99539.50;;;20.72;84.74
2339;BME280;1180;51.438;6.978;2022-09-09T07:46:34;99547.97;;;20.74;83.55
2339;BME280;1180;51.438;6.978;2022-09-09T07:49:00;99552.25;;;20.67;82.34
2339;BME280;1180;51.438;6.978;2022-09-09T07:51:28;99553.69;;;20.69;82.51
2339;BME280;1180;51.438;6.978;2022-09-09T07:53:59;99564.13;;;20.69;82.06
2339;BME280;1180;51.438;6.978;2022-09-09T07:56:25;99553.47;;;20.79;81.50
2339;BME280;1180;51.438;6.978;2022-09-09T07:58:53;99563.41;;;20.84;81.82
2339;BME280;1180;51.438;6.978;2022-09-09T08:01:24;99559.34;;;20.81;80.73
2339;BME280;1180;51.438;6.978;2022-09-09T08:04:11;99559.72;;;20.70;80.77
2339;BME280;1180;51.438;6.978;2022-09-09T08:06:42;99564.50;;;20.89;80.83
2339;BME280;1180;51.438;6.978;2022-09-09T08:09:08;99557.41;;;20.98;79.17
2339;BME280;1180;51.438;6.978;2022-09-09T08:11:34;99559.50;;;21.03;79.41
2339;BME280;1180;51.438;6.978;2022-09-09T08:14:01;99564.44;;;20.98;79.63
2339;BME280;1180;51.438;6.978;2022-09-09T08:16:33;99564.78;;;20.95;79.09
2339;BME280;1180;51.438;6.978;2022-09-09T08:19:02;99558.94;;;20.92;79.37
2339;BME280;1180;51.438;6.978;2022-09-09T08:21:29;99563.91;;;20.79;79.59
2339;BME280;1180;51.438;6.978;2022-09-09T08:23:57;99563.31;;;20.92;79.62
2339;BME280;1180;51.438;6.978;2022-09-09T08:26:28;99565.19;;;21.06;80.15
2339;BME280;1180;51.438;6.978;2022-09-09T08:28:55;99566.16;;;21.05;79.92
2339;BME280;1180;51.438;6.978;2022-09-09T08:31:24;99560.75;;;21.07;78.55
2339;BME280;1180;51.438;6.978;2022-09-09T08:33:50;99564.47;;;21.13;76.08
2339;BME280;1180;51.438;6.978;2022-09-09T08:36:18;99565.66;;;21.25;76.55
2339;BME280;1180;51.438;6.978;2022-09-09T08:38:47;99558.81;;;21.39;76.12
2339;BME280;1180;51.438;6.978;2022-09-09T08:50:00;99571.25;;;21.52;71.50
2339;BME280;1180;51.438;6.978;2022-09-09T08:55:52;99568.75;;;21.59;70.13
2339;BME280;1180;51.438;6.978;2022-09-09T09:06:13;99562.81;;;21.65;68.68
2339;BME280;1180;51.438;6.978;2022-09-09T09:08:54;99559.31;;;21.73;69.15
2339;BME280;1180;51.438;6.978;2022-09-09T09:11:21;99569.03;;;21.79;70.04
2339;BME280;1180;51.438;6.978;2022-09-09T09:14:00;99561.38;;;21.77;66.98
2339;BME280;1180;51.438;6.978;2022-09-09T09:18:59;99569.19;;;21.77;67.76
2339;BME280;1180;51.438;6.978;2022-09-09T09:21:38;99573.06;;;21.82;67.53
2339;BME280;1180;51.438;6.978;2022-09-09T09:24:11;99568.16;;;21.72;66.63
2339;BME280;1180;51.438;6.978;2022-09-09T09:26:42;99576.03;;;21.78;65.85
2339;BME280;1180;51.438;6.978;2022-09-09T09:29:19;99576.75;;;21.87;66.42
2339;BME280;1180;51.438;6.978;2022-09-09T09:31:55;99578.38;;;21.88;66.46
2339;BME280;1180;51.438;6.978;2022-09-09T09:34:22;99582.13;;;22.01;66.25
2339;BME280;1180;51.438;6.978;2022-09-09T09:36:59;99577.00;;;22.07;66.39
2339;BME280;1180;51.438;6.978;2022-09-09T09:39:31;99584.22;;;22.05;67.46
2339;BME280;1180;51.438;6.978;2022-09-09T09:42:13;99574.72;;;22.19;66.96
2339;BME280;1180;51.438;6.978;2022-09-09T09:44:40;99580.47;;;22.30;65.61
2339;BME280;1180;51.438;6.978;2022-09-09T09:49:39;99577.09;;;22.36;65.51
2339;BME280;1180;51.438;6.978;2022-09-09T09:52:06;99579.28;;;22.32;64.49
2339;BME280;1180;51.438;6.978;2022-09-09T09:54:41;99583.28;;;22.28;65.33
2339;BME280;1180;51.438;6.978;2022-09-09T09:57:09;99587.50;;;22.29;65.51
2339;BME280;1180;51.438;6.978;2022-09-09T09:59:36;99587.13;;;22.32;64.23
2339;BME280;1180;51.438;6.978;2022-09-09T10:04:38;99590.25;;;22.21;66.30
2339;BME280;1180;51.438;6.978;2022-09-09T10:07:18;99584.19;;;22.20;66.33
2339;BME280;1180;51.438;6.978;2022-09-09T10:09:44;99589.25;;;22.22;66.59
2339;BME280;1180;51.438;6.978;2022-09-09T10:12:59;99589.78;;;22.17;66.81
2339;BME280;1180;51.438;6.978;2022-09-09T10:18:13;99580.66;;;22.28;65.71
2339;BME280;1180;51.438;6.978;2022-09-09T10:31:31;99574.25;;;22.68;60.07
2339;BME280;1180;51.438;6.978;2022-09-09T10:34:25;99566.31;;;22.83;59.37
2339;BME280;1180;51.438;6.978;2022-09-09T10:36:57;99564.50;;;22.83;58.06
2339;BME280;1180;51.438;6.978;2022-09-09T10:39:38;99564.09;;;22.79;58.04
2339;BME280;1180;51.438;6.978;2022-09-09T10:42:16;99561.47;;;22.58;58.22
2339;BME280;1180;51.438;6.978;2022-09-09T10:45:05;99562.28;;;22.58;58.47
2339;BME280;1180;51.438;6.978;2022-09-09T10:55:20;99563.91;;;23.10;58.39
2339;BME280;1180;51.438;6.978;2022-09-09T10:57:50;99562.34;;;23.15;59.73
2339;BME280;1180;51.438;6.978;2022-09-09T11:00:21;99555.69;;;23.13;59.12
2339;BME280;1180;51.438;6.978;2022-09-09T11:02:56;99559.88;;;23.07;59.11
2339;BME280;1180;51.438;6.978;2022-09-09T11:05:26;99550.41;;;23.06;59.62
2339;BME280;1180;51.438;6.978;2022-09-09T11:08:28;99558.69;;;23.10;60.24
2339;BME280;1180;51.438;6.978;2022-09-09T11:11:16;99555.44;;;23.07;60.28
2339;BME280;1180;51.438;6.978;2022-09-09T11:16:27;99558.34;;;22.91;61.12
2339;BME280;1180;51.438;6.978;2022-09-09T11:19:13;99557.06;;;22.58;61.11
2339;BME280;1180;51.438;6.978;2022-09-09T11:21:50;99555.69;;;22.62;61.03
2339;BME280;1180;51.438;6.978;2022-09-09T11:27:02;99551.25;;;23.13;60.76
2339;BME280;1180;51.438;6.978;2022-09-09T11:35:24;99535.69;;;23.33;60.89
2339;BME280;1180;51.438;6.978;2022-09-09T11:38:18;99540.53;;;23.36;60.55
2339;BME280;1180;51.438;6.978;2022-09-09T11:40:45;99542.59;;;23.41;59.67
2339;BME280;1180;51.438;6.978;2022-09-09T11:43:33;99541.97;;;23.39;59.64
2339;BME280;1180;51.438;6.978;2022-09-09T11:46:03;99541.41;;;23.44;59.09
2339;BME280;1180;51.438;6.978;2022-09-09T11:48:36;99544.22;;;23.42;59.43
2339;BME280;1180;51.438;6.978;2022-09-09T11:51:10;99538.69;;;23.30;59.63
2339;BME280;1180;51.438;6.978;2022-09-09T11:56:25;99547.94;;;22.98;61.97
2339;BME280;1180;51.438;6.978;2022-09-09T12:01:50;99557.91;;;22.87;63.42
2339;BME280;1180;51.438;6.978;2022-09-09T12:06:56;99556.94;;;22.95;64.95
2339;BME280;1180;51.438;6.978;2022-09-09T12:09:31;99555.72;;;23.19;64.01
2339;BME280;1180;51.438;6.978;2022-09-09T12:17:26;99554.13;;;23.47;63.91
2339;BME280;1180;51.438;6.978;2022-09-09T12:20:15;99559.00;;;23.57;63.90
2339;BME280;1180;51.438;6.978;2022-09-09T12:28:18;99557.63;;;23.61;63.82
2339;BME280;1180;51.438;6.978;2022-09-09T12:33:19;99561.34;;;23.45;64.06
2339;BME280;1180;51.438;6.978;2022-09-09T12:35:51;99556.31;;;23.43;64.44
2339;BME280;1180;51.438;6.978;2022-09-09T12:40:55;99547.91;;;23.55;62.66
2339;BME280;1180;51.438;6.978;2022-09-09T12:43:23;99554.72;;;23.49;62.59
2339;BME280;1180;51.438;6.978;2022-09-09T12:45:52;99555.59;;;23.63;61.87
2339;BME280;1180;51.438;6.978;2022-09-09T12:48:27;99553.63;;;23.72;61.93
2339;BME280;1180;51.438;6.978;2022-09-09T12:50:55;99545.53;;;23.60;62.93
2339;BME280;1180;51.438;6.978;2022-09-09T12:53:27;99546.06;;;23.48;62.75
2339;BME280;1180;51.438;6.978;2022-09-09T12:55:59;99538.44;;;23.54;63.35
2339;BME280;1180;51.438;6.978;2022-09-09T12:58:27;99537.13;;;23.36;63.56
2339;BME280;1180;51.438;6.978;2022-09-09T13:00:58;99534.13;;;23.39;64.66
2339;BME280;1180;51.438;6.978;2022-09-09T13:03:24;99533.47;;;23.30;64.97
2339;BME280;1180;51.438;6.978;2022-09-09T13:05:53;99530.31;;;23.13;65.03
2339;BME280;1180;51.438;6.978;2022-09-09T13:08:24;99548.22;;;23.10;64.88
2339;BME280;1180;51.438;6.978;2022-09-09T13:10:59;99555.78;;;22.98;65.51
2339;BME280;1180;51.438;6.978;2022-09-09T13:13:37;99555.88;;;22.61;69.69
2339;BME280;1180;51.438;6.978;2022-09-09T13:16:05;99553.91;;;22.26;69.69
2339;BME280;1180;51.438;6.978;2022-09-09T13:18:34;99566.06;;;22.19;73.42
2339;BME280;1180;51.438;6.978;2022-09-09T13:21:00;99563.28;;;22.20;72.97
2339;BME280;1180;51.438;6.978;2022-09-09T13:23:28;99559.97;;;22.12;74.77
2339;BME280;1180;51.438;6.978;2022-09-09T13:26:00;99561.69;;;22.04;74.88
2339;BME280;1180;51.438;6.978;2022-09-09T13:28:30;99564.31;;;22.04;75.72
2339;BME280;1180;51.438;6.978;2022-09-09T13:31:18;99560.09;;;21.88;75.53
2339;BME280;1180;51.438;6.978;2022-09-09T13:33:45;99560.56;;;21.77;76.33
2339;BME280;1180;51.438;6.978;2022-09-09T13:36:11;99541.94;;;21.80;75.96
2339;BME280;1180;51.438;6.978;2022-09-09T13:38:40;99546.69;;;21.76;75.75
2339;BME280;1180;51.438;6.978;2022-09-09T13:41:30;99548.31;;;21.77;75.63
2339;BME280;1180;51.438;6.978;2022-09-09T13:43:57;99546.59;;;21.85;75.09
2339;BME280;1180;51.438;6.978;2022-09-09T13:46:36;99551.09;;;21.91;75.41
2339;BME280;1180;51.438;6.978;2022-09-09T13:49:19;99552.16;;;21.97;75.98
2339;BME280;1180;51.438;6.978;2022-09-09T13:51:50;99554.19;;;22.16;77.28
2339;BME280;1180;51.438;6.978;2022-09-09T13:54:19;99549.91;;;22.30;77.34
2339;BME280;1180;51.438;6.978;2022-09-09T13:56:45;99552.03;;;22.42;77.06
2339;BME280;1180;51.438;6.978;2022-09-09T13:59:13;99539.56;;;22.59;77.23
2339;BME280;1180;51.438;6.978;2022-09-09T14:01:39;99539.97;;;22.84;77.03
2339;BME280;1180;51.438;6.978;2022-09-09T14:04:05;99529.69;;;23.11;75.55
2339;BME280;1180;51.438;6.978;2022-09-09T14:06:37;99527.75;;;23.20;73.72
2339;BME280;1180;51.438;6.978;2022-09-09T14:09:11;99526.22;;;23.32;73.94
2339;BME280;1180;51.438;6.978;2022-09-09T14:11:37;99528.09;;;23.45;73.36
2339;BME280;1180;51.438;6.978;2022-09-09T14:14:03;99516.84;;;23.51;72.70
2339;BME280;1180;51.438;6.978;2022-09-09T14:16:29;99514.50;;;23.57;71.11
2339;BME280;1180;51.438;6.978;2022-09-09T14:18:54;99515.50;;;23.56;71.32
2339;BME280;1180;51.438;6.978;2022-09-09T14:21:24;99517.63;;;23.45;70.22
2339;BME280;1180;51.438;6.978;2022-09-09T14:23:50;99525.09;;;23.42;70.54
2339;BME280;1180;51.438;6.978;2022-09-09T14:26:15;99520.16;;;23.25;71.92
2339;BME280;1180;51.438;6.978;2022-09-09T14:28:41;99520.16;;;23.25;71.93
2339;BME280;1180;51.438;6.978;2022-09-09T14:31:06;99520.66;;;23.14;72.91
2339;BME280;1180;51.438;6.978;2022-09-09T14:33:32;99524.84;;;23.08;75.03
2339;BME280;1180;51.438;6.978;2022-09-09T14:36:00;99527.06;;;23.11;76.26
2339;BME280;1180;51.438;6.978;2022-09-09T14:38:29;99528.63;;;22.99;78.27
2339;BME280;1180;51.438;6.978;2022-09-09T14:40:55;99532.41;;;22.96;77.83
2339;BME280;1180;51.438;6.978;2022-09-09T14:43:21;99523.16;;;22.93;79.29
2339;BME280;1180;51.438;6.978;2022-09-09T14:45:47;99518.75;;;23.01;77.63
2339;BME280;1180;51.438;6.978;2022-09-09T14:48:14;99521.94;;;22.96;77.45
2339;BME280;1180;51.438;6.978;2022-09-09T14:50:41;99516.84;;;22.88;77.80
2339;BME280;1180;51.438;6.978;2022-09-09T14:53:07;99523.09;;;22.87;77.19
2339;BME280;1180;51.438;6.978;2022-09-09T14:55:34;99538.63;;;22.67;76.31
2339;BME280;1180;51.438;6.978;2022-09-09T14:58:00;99564.00;;;22.51;78.48
2339;BME280;1180;51.438;6.978;2022-09-09T15:00:25;99588.56;;;21.98;78.65
2339;BME280;1180;51.438;6.978;2022-09-09T15:02:54;99579.34;;;21.42;77.64
2339;BME280;1180;51.438;6.978;2022-09-09T15:05:20;99576.28;;;21.00;78.11
2339;BME280;1180;51.438;6.978;2022-09-09T15:07:46;99579.25;;;20.97;78.06
2339;BME280;1180;51.438;6.978;2022-09-09T15:10:12;99577.28;;;20.76;78.77
2339;BME280;1180;51.438;6.978;2022-09-09T15:12:37;99564.19;;;20.61;79.17
2339;BME280;1180;51.438;6.978;2022-09-09T15:15:04;99571.88;;;20.54;80.63
2339;BME280;1180;51.438;6.978;2022-09-09T15:17:29;99568.97;;;20.49;81.95
2339;BME280;1180;51.438;6.978;2022-09-09T15:19:55;99562.38;;;20.38;81.92
2339;BME280;1180;51.438;6.978;2022-09-09T15:22:20;99565.94;;;20.37;82.88
2339;BME280;1180;51.438;6.978;2022-09-09T15:24:46;99561.28;;;20.32;84.24
2339;BME280;1180;51.438;6.978;2022-09-09T15:27:12;99558.53;;;20.26;85.14
2339;BME280;1180;51.438;6.978;2022-09-09T15:29:39;99558.41;;;20.19;85.23